sensor_id;sensor_type;location;lat;lon;timestamp;pressure;altitude;pressure_sealevel;temperature;humidity
12969;BME280;6549;53.128;8.182;2023-08-07T00:01:39;100500.59;;;14.71;100.00
12969;BME280;6549;53.128;8.182;2023-08-07T00:04:39;100504.53;;;14.70;100.00
12969;BME280;6549;53.128;8.182;2023-08-07T00:07:39;100502.63;;;14.67;100.00
12969;BME280;6549;53.128;8.182;2023-08-07T00:10:40;100493.94;;;14.65;100.00
12969;BME280;6549;53.128;8.182;2023-08-07T00:13:40;100500.34;;;14.62;100.00
12969;BME280;6549;53.128;8.182;2023-08-07T00:16:41;100496.78;;;14.62;100.00
12969;BME280;6549;53.128;8.182;2023-08-07T00:19:41;100495.66;;;14.59;100.00
12969;BME280;6549;53.128;8.182;2023-08-07T00:22:42;100491.31;;;14.58;100.00
12969;BME280;6549;53.128;8.182;2023-08-07T00:25:42;100491.31;;;14.58;100.00
12969;BME280;6549;53.128;8.182;2023-08-07T00:28:42;100489.75;;;14.57;100.00
12969;BME280;6549;53.128;8.182;2023-08-07T00:31:43;100490.94;;;14.56;100.00
12969;BME280;6549;53.128;8.182;2023-08-07T00:34:44;100495.34;;;14.54;100.00
12969;BME280;6549;53.128;8.182;2023-08-07T00:37:44;100494.94;;;14.52;100.00
12969;BME280;6549;53.128;8.182;2023-08-07T00:40:44;100489.00;;;14.53;100.00
12969;BME280;6549;53.128;8.182;2023-08-07T00:43:45;100493.03;;;14.49;100.00
12969;BME280;6549;53.128;8.182;2023-08-07T00:46:45;100487.88;;;14.51;100.00
12969;BME280;6549;53.128;8.182;2023-08-07T00:49:47;100486.31;;;14.50;100.00
12969;BME280;6549;53.128;8.182;2023-08-07T00:52:48;100493.03;;;14.49;100.00
12969;BME280;6549;53.128;8.182;2023-08-07T00:55:48;100495.75;;;14.52;100.00
12969;BME280;6549;53.128;8.182;2023-08-07T00:58:49;100497.69;;;14.55;100.00
12969;BME280;6549;53.128;8.182;2023-08-07T01:01:50;100499.66;;;14.55;100.00
12969;BME280;6549;53.128;8.182;2023-08-07T01:04:51;100495.34;;;14.54;100.00
12969;BME280;6549;53.128;8.182;2023-08-07T01:07:53;100498.09;;;14.54;100.00
12969;BME280;6549;53.128;8.182;2023-08-07T01:15:08;100505.59;;;14.53;100.00
12969;BME280;6549;53.128;8.182;2023-08-07T01:18:13;100493.03;;;14.49;100.00
12969;BME280;6549;53.128;8.182;2023-08-07T01:21:18;100490.69;;;14.47;100.00
12969;BME280;6549;53.128;8.182;2023-08-07T01:24:18;100492.72;;;14.43;100.00
12969;BME280;6549;53.128;8.182;2023-08-07T01:27:27;100499.09;;;14.40;100.00
12969;BME280;6549;53.128;8.182;2023-08-07T01:30:36;100500.28;;;14.39;100.00
12969;BME280;6549;53.128;8.182;2023-08-07T01:33:45;100495.19;;;14.34;100.00
12969;BME280;6549;53.128;8.182;2023-08-07T01:36:48;100484.63;;;14.29;100.00
12969;BME280;6549;53.128;8.182;2023-08-07T01:39:51;100490.56;;;14.27;100.00
12969;BME280;6549;53.128;8.182;2023-08-07T01:42:52;100494.94;;;14.25;100.00
12969;BME280;6549;53.128;8.182;2023-08-07T01:45:52;100498.13;;;14.23;100.00
12969;BME280;6549;53.128;8.182;2023-08-07T01:48:52;100497.34;;;14.23;100.00
12969;BME280;6549;53.128;8.182;2023-08-07T01:51:53;100490.28;;;14.18;100.00
12969;BME280;6549;53.128;8.182;2023-08-07T01:54:53;100492.69;;;14.16;100.00
12969;BME280;6549;53.128;8.182;2023-08-07T01:57:53;100495.88;;;14.15;100.00
12969;BME280;6549;53.128;8.182;2023-08-07T02:00:54;100488.78;;;14.14;100.00
12969;BME280;6549;53.128;8.182;2023-08-07T02:03:54;100501.03;;;14.13;100.00
12969;BME280;6549;53.128;8.182;2023-08-07T02:06:54;100498.31;;;14.09;100.00
12969;BME280;6549;53.128;8.182;2023-08-07T02:09:55;100494.75;;;14.09;100.00
12969;BME280;6549;53.128;8.182;2023-08-07T02:12:57;100503.06;;;14.09;100.00
12969;BME280;6549;53.128;8.182;2023-08-07T02:15:59;100510.16;;;14.10;100.00
12969;BME280;6549;53.128;8.182;2023-08-07T02:18:59;100508.16;;;14.10;100.00
12969;BME280;6549;53.128;8.182;2023-08-07T02:22:00;100514.84;;;14.13;100.00
12969;BME280;6549;53.128;8.182;2023-08-07T02:25:00;100514.03;;;14.16;100.00
12969;BME280;6549;53.128;8.182;2023-08-07T02:31:44;100502.06;;;14.22;100.00
12969;BME280;6549;53.128;8.182;2023-08-07T02:34:45;100514.28;;;14.25;100.00
12969;BME280;6549;53.128;8.182;2023-08-07T02:37:45;100519.31;;;14.33;100.00
12969;BME280;6549;53.128;8.182;2023-08-07T02:40:46;100508.22;;;14.37;100.00
12969;BME280;6549;53.128;8.182;2023-08-07T02:43:47;100512.91;;;14.40;100.00
12969;BME280;6549;53.128;8.182;2023-08-07T02:46:47;100508.94;;;14.41;100.00
12969;BME280;6549;53.128;8.182;2023-08-07T02:49:47;100512.91;;;14.40;100.00
12969;BME280;6549;53.128;8.182;2023-08-07T02:52:48;100513.75;;;14.37;100.00
12969;BME280;6549;53.128;8.182;2023-08-07T02:55:48;100520.06;;;14.37;100.00
12969;BME280;6549;53.128;8.182;2023-08-07T02:58:49;100519.69;;;14.35;100.00
12969;BME280;6549;53.128;8.182;2023-08-07T03:01:50;100520.47;;;14.36;100.00
12969;BME280;6549;53.128;8.182;2023-08-07T03:04:50;100514.53;;;14.37;100.00
12969;BME280;6549;53.128;8.182;2023-08-07T03:07:50;100509.00;;;14.37;100.00
12969;BME280;6549;53.128;8.182;2023-08-07T03:10:56;100501.00;;;14.43;100.00
12969;BME280;6549;53.128;8.182;2023-08-07T03:13:56;100507.03;;;14.38;100.00
12969;BME280;6549;53.128;8.182;2023-08-07T03:16:57;100499.09;;;14.40;100.00
12969;BME280;6549;53.128;8.182;2023-08-07T03:19:57;100513.69;;;14.41;100.00
12969;BME280;6549;53.128;8.182;2023-08-07T03:22:57;100508.53;;;14.43;100.00
12969;BME280;6549;53.128;8.182;2023-08-07T03:26:08;100508.47;;;14.46;100.00
12969;BME280;6549;53.128;8.182;2023-08-07T03:29:08;100506.53;;;14.43;100.00
12969;BME280;6549;53.128;8.182;2023-08-07T03:32:09;100512.44;;;14.45;100.00
12969;BME280;6549;53.128;8.182;2023-08-07T03:35:09;100500.25;;;14.43;100.00
12969;BME280;6549;53.128;8.182;2023-08-07T03:38:10;100507.75;;;14.42;100.00
12969;BME280;6549;53.128;8.182;2023-08-07T03:41:10;100512.91;;;14.40;100.00
12969;BME280;6549;53.128;8.182;2023-08-07T03:44:10;100512.19;;;14.36;100.00
12969;BME280;6549;53.128;8.182;2023-08-07T03:47:11;100511.78;;;14.34;100.00
12969;BME280;6549;53.128;8.182;2023-08-07T03:50:11;100519.31;;;14.33;100.00
12969;BME280;6549;53.128;8.182;2023-08-07T03:53:11;100521.69;;;14.31;100.00
12969;BME280;6549;53.128;8.182;2023-08-07T03:56:12;100518.97;;;14.28;100.00
12969;BME280;6549;53.128;8.182;2023-08-07T03:59:12;100517.41;;;14.27;100.00
12969;BME280;6549;53.128;8.182;2023-08-07T04:02:12;100514.66;;;14.27;100.00
12969;BME280;6549;53.128;8.182;2023-08-07T04:05:13;100516.69;;;14.23;100.00
12969;BME280;6549;53.128;8.182;2023-08-07T04:08:13;100513.19;;;14.19;100.00
12969;BME280;6549;53.128;8.182;2023-08-07T04:11:13;100524.66;;;14.17;100.00
12969;BME280;6549;53.128;8.182;2023-08-07T04:14:14;100511.66;;;14.14;100.00
12969;BME280;6549;53.128;8.182;2023-08-07T04:17:14;100520.34;;;14.13;100.00
12969;BME280;6549;53.128;8.182;2023-08-07T04:20:14;100506.66;;;14.06;100.00
12969;BME280;6549;53.128;8.182;2023-08-07T04:23:15;100515.72;;;14.06;100.00
12969;BME280;6549;53.128;8.182;2023-08-07T04:26:15;100511.41;;;14.05;100.00
12969;BME280;6549;53.128;8.182;2023-08-07T04:29:15;100511.78;;;14.04;100.00
12969;BME280;6549;53.128;8.182;2023-08-07T04:32:15;100525.19;;;14.05;100.00
12969;BME280;6549;53.128;8.182;2023-08-07T04:35:16;100522.44;;;14.05;100.00
12969;BME280;6549;53.128;8.182;2023-08-07T04:38:17;100526.00;;;14.06;100.00
12969;BME280;6549;53.128;8.182;2023-08-07T04:41:17;100521.66;;;14.05;100.00
12969;BME280;6549;53.128;8.182;2023-08-07T04:44:18;100523.22;;;14.06;100.00
12969;BME280;6549;53.128;8.182;2023-08-07T04:47:18;100528.28;;;14.11;100.00
12969;BME280;6549;53.128;8.182;2023-08-07T04:50:18;100523.91;;;14.13;100.00
12969;BME280;6549;53.128;8.182;2023-08-07T04:53:19;100519.97;;;14.14;100.00
12969;BME280;6549;53.128;8.182;2023-08-07T04:56:19;100524.66;;;14.17;100.00
12969;BME280;6549;53.128;8.182;2023-08-07T04:59:20;100525.81;;;14.20;100.00
12969;BME280;6549;53.128;8.182;2023-08-07T05:02:20;100531.69;;;14.22;100.00
12969;BME280;6549;53.128;8.182;2023-08-07T05:05:20;100527.31;;;14.24;100.00
12969;BME280;6549;53.128;8.182;2023-08-07T05:08:21;100531.63;;;14.25;100.00
12969;BME280;6549;53.128;8.182;2023-08-07T05:11:21;100538.34;;;14.28;100.00
12969;BME280;6549;53.128;8.182;2023-08-07T05:14:22;100534.31;;;14.32;100.00
12969;BME280;6549;53.128;8.182;2023-08-07T05:17:22;100536.28;;;14.35;100.00
12969;BME280;6549;53.128;8.182;2023-08-07T05:20:22;100544.09;;;14.41;100.00
12969;BME280;6549;53.128;8.182;2023-08-07T05:23:23;100537.31;;;14.45;100.00
12969;BME280;6549;53.128;8.182;2023-08-07T05:26:23;100543.19;;;14.51;100.00
12969;BME280;6549;53.128;8.182;2023-08-07T05:29:24;100545.03;;;14.57;100.00
12969;BME280;6549;53.128;8.182;2023-08-07T05:32:24;100550.50;;;14.61;100.00
12969;BME280;6549;53.128;8.182;2023-08-07T05:35:24;100547.66;;;14.68;100.00
12969;BME280;6549;53.128;8.182;2023-08-07T05:38:25;100559.75;;;14.77;100.00
12969;BME280;6549;53.128;8.182;2023-08-07T05:41:25;100554.97;;;14.81;100.00
12969;BME280;6549;53.128;8.182;2023-08-07T05:44:25;100559.59;;;14.88;100.00
12969;BME280;6549;53.128;8.182;2023-08-07T05:47:26;100550.41;;;14.95;100.00
12969;BME280;6549;53.128;8.182;2023-08-07T05:50:26;100556.91;;;15.08;100.00
12969;BME280;6549;53.128;8.182;2023-08-07T05:53:27;100561.53;;;15.14;100.00
12969;BME280;6549;53.128;8.182;2023-08-07T05:56:27;100566.66;;;15.16;100.00
12969;BME280;6549;53.128;8.182;2023-08-07T05:59:27;100565.47;;;15.17;100.00
12969;BME280;6549;53.128;8.182;2023-08-07T06:02:28;100570.84;;;15.24;100.00
12969;BME280;6549;53.128;8.182;2023-08-07T06:05:29;100567.63;;;15.29;100.00
12969;BME280;6549;53.128;8.182;2023-08-07T06:08:30;100570.97;;;15.40;100.00
12969;BME280;6549;53.128;8.182;2023-08-07T06:11:30;100579.50;;;15.49;100.00
12969;BME280;6549;53.128;8.182;2023-08-07T06:14:31;100573.41;;;15.61;100.00
12969;BME280;6549;53.128;8.182;2023-08-07T06:17:32;100581.72;;;15.61;100.00
12969;BME280;6549;53.128;8.182;2023-08-07T06:20:33;100591.22;;;15.60;100.00
12969;BME280;6549;53.128;8.182;2023-08-07T06:23:34;100585.91;;;15.46;100.00
12969;BME280;6549;53.128;8.182;2023-08-07T06:26:34;100590.84;;;15.35;100.00
12969;BME280;6549;53.128;8.182;2023-08-07T06:29:35;100591.03;;;15.24;100.00
12969;BME280;6549;53.128;8.182;2023-08-07T06:32:35;100591.97;;;15.14;100.00
12969;BME280;6549;53.128;8.182;2023-08-07T06:35:39;100588.84;;;15.12;100.00
12969;BME280;6549;53.128;8.182;2023-08-07T06:38:40;100584.84;;;15.17;100.00
12969;BME280;6549;53.128;8.182;2023-08-07T06:41:41;100585.19;;;15.19;100.00
12969;BME280;6549;53.128;8.182;2023-08-07T06:44:41;100578.84;;;15.18;100.00
12969;BME280;6549;53.128;8.182;2023-08-07T06:47:42;100587.38;;;15.31;100.00
12969;BME280;6549;53.128;8.182;2023-08-07T06:50:42;100583.75;;;15.34;100.00
12969;BME280;6549;53.128;8.182;2023-08-07T06:53:42;100584.81;;;15.40;100.00
12969;BME280;6549;53.128;8.182;2023-08-07T06:56:43;100584.69;;;15.47;100.00
12969;BME280;6549;53.128;8.182;2023-08-07T06:59:45;100596.03;;;15.56;100.00
12969;BME280;6549;53.128;8.182;2023-08-07T07:02:45;100604.13;;;15.67;100.00
12969;BME280;6549;53.128;8.182;2023-08-07T07:05:46;100599.94;;;16.02;100.00
12969;BME280;6549;53.128;8.182;2023-08-07T07:08:47;100596.06;;;16.15;100.00
12969;BME280;6549;53.128;8.182;2023-08-07T07:11:47;100591.78;;;16.50;100.00
12969;BME280;6549;53.128;8.182;2023-08-07T07:14:48;100589.88;;;16.83;100.00
12969;BME280;6549;53.128;8.182;2023-08-07T07:17:48;100591.19;;;17.27;100.00
12969;BME280;6549;53.128;8.182;2023-08-07T07:20:56;100589.25;;;17.57;100.00
12969;BME280;6549;53.128;8.182;2023-08-07T07:23:57;100589.44;;;17.94;100.00
12969;BME280;6549;53.128;8.182;2023-08-07T07:26:58;100599.94;;;18.16;100.00
12969;BME280;6549;53.128;8.182;2023-08-07T07:29:58;100605.81;;;18.47;100.00
12969;BME280;6549;53.128;8.182;2023-08-07T07:32:58;100607.22;;;18.93;100.00
12969;BME280;6549;53.128;8.182;2023-08-07T07:35:59;100606.44;;;18.79;100.00
12969;BME280;6549;53.128;8.182;2023-08-07T07:39:01;100606.44;;;18.67;100.00
12969;BME280;6549;53.128;8.182;2023-08-07T07:42:02;100615.56;;;18.67;100.00
12969;BME280;6549;53.128;8.182;2023-08-07T07:45:05;100620.25;;;18.41;100.00
12969;BME280;6549;53.128;8.182;2023-08-07T07:48:05;100615.59;;;18.38;100.00
12969;BME280;6549;53.128;8.182;2023-08-07T07:51:08;100615.25;;;18.36;100.00
12969;BME280;6549;53.128;8.182;2023-08-07T07:54:09;100618.56;;;18.73;100.00
12969;BME280;6549;53.128;8.182;2023-08-07T07:57:09;100616.22;;;19.09;100.00
12969;BME280;6549;53.128;8.182;2023-08-07T08:00:15;100630.47;;;19.24;100.00
12969;BME280;6549;53.128;8.182;2023-08-07T08:03:16;100640.75;;;19.02;100.00
12969;BME280;6549;53.128;8.182;2023-08-07T08:06:16;100644.31;;;19.02;100.00
12969;BME280;6549;53.128;8.182;2023-08-07T08:09:17;100642.50;;;18.83;100.00
12969;BME280;6549;53.128;8.182;2023-08-07T08:12:17;100626.22;;;18.56;100.00
12969;BME280;6549;53.128;8.182;2023-08-07T08:15:18;100645.88;;;18.08;100.00
12969;BME280;6549;53.128;8.182;2023-08-07T08:18:22;100656.81;;;17.70;100.00
12969;BME280;6549;53.128;8.182;2023-08-07T08:21:23;100655.94;;;17.40;100.00
12969;BME280;6549;53.128;8.182;2023-08-07T08:24:23;100659.41;;;17.28;100.00
12969;BME280;6549;53.128;8.182;2023-08-07T08:27:24;100683.06;;;17.00;100.00
12969;BME280;6549;53.128;8.182;2023-08-07T08:30:26;100664.59;;;17.10;100.00
12969;BME280;6549;53.128;8.182;2023-08-07T08:33:28;100672.44;;;17.47;100.00
12969;BME280;6549;53.128;8.182;2023-08-07T08:36:29;100667.59;;;18.13;100.00
12969;BME280;6549;53.128;8.182;2023-08-07T08:39:29;100663.19;;;18.57;100.00
12969;BME280;6549;53.128;8.182;2023-08-07T08:42:30;100673.09;;;18.58;100.00
12969;BME280;6549;53.128;8.182;2023-08-07T08:45:30;100669.38;;;18.19;100.00
12969;BME280;6549;53.128;8.182;2023-08-07T08:48:34;100684.38;;;17.93;100.00
12969;BME280;6549;53.128;8.182;2023-08-07T08:51:36;100692.41;;;17.59;100.00
12969;BME280;6549;53.128;8.182;2023-08-07T08:54:37;100701.06;;;17.44;100.00
12969;BME280;6549;53.128;8.182;2023-08-07T08:57:39;100695.88;;;17.30;100.00
12969;BME280;6549;53.128;8.182;2023-08-07T09:00:41;100689.72;;;17.71;100.00
12969;BME280;6549;53.128;8.182;2023-08-07T09:03:42;100698.25;;;18.38;100.00
12969;BME280;6549;53.128;8.182;2023-08-07T09:06:42;100698.59;;;18.69;100.00
12969;BME280;6549;53.128;8.182;2023-08-07T09:09:43;100708.41;;;18.16;100.00
12969;BME280;6549;53.128;8.182;2023-08-07T09:12:52;100708.41;;;17.87;100.00
12969;BME280;6549;53.128;8.182;2023-08-07T09:15:55;100704.66;;;18.22;100.00
12969;BME280;6549;53.128;8.182;2023-08-07T09:18:58;100701.06;;;18.67;100.00
12969;BME280;6549;53.128;8.182;2023-08-07T09:22:05;100713.03;;;19.18;100.00
12969;BME280;6549;53.128;8.182;2023-08-07T09:25:06;100708.34;;;19.02;100.00
12969;BME280;6549;53.128;8.182;2023-08-07T09:28:14;100710.00;;;18.87;100.00
12969;BME280;6549;53.128;8.182;2023-08-07T09:31:15;100718.44;;;18.71;100.00
12969;BME280;6549;53.128;8.182;2023-08-07T09:34:19;100729.75;;;18.35;100.00
12969;BME280;6549;53.128;8.182;2023-08-07T09:37:28;100756.25;;;17.94;100.00
12969;BME280;6549;53.128;8.182;2023-08-07T09:40:29;100772.78;;;17.33;100.00
12969;BME280;6549;53.128;8.182;2023-08-07T09:43:45;100765.63;;;16.96;100.00
12969;BME280;6549;53.128;8.182;2023-08-07T09:46:45;100747.69;;;16.42;100.00
12969;BME280;6549;53.128;8.182;2023-08-07T09:49:46;100757.75;;;16.95;100.00
12969;BME280;6549;53.128;8.182;2023-08-07T09:52:48;100759.97;;;17.20;100.00
12969;BME280;6549;53.128;8.182;2023-08-07T09:55:52;100759.59;;;17.53;100.00
12969;BME280;6549;53.128;8.182;2023-08-07T09:59:16;100763.63;;;18.46;100.00
12969;BME280;6549;53.128;8.182;2023-08-07T10:03:08;100769.97;;;19.17;100.00
12969;BME280;6549;53.128;8.182;2023-08-07T10:06:13;100771.63;;;19.02;100.00
12969;BME280;6549;53.128;8.182;2023-08-07T10:09:56;100803.25;;;17.73;100.00
12969;BME280;6549;53.128;8.182;2023-08-07T10:13:23;100804.25;;;17.27;100.00
12969;BME280;6549;53.128;8.182;2023-08-07T10:16:26;100804.72;;;16.86;100.00
12969;BME280;6549;53.128;8.182;2023-08-07T10:19:28;100814.41;;;16.54;100.00
12969;BME280;6549;53.128;8.182;2023-08-07T10:22:30;100809.06;;;16.67;100.00
12969;BME280;6549;53.128;8.182;2023-08-07T10:25:35;100808.06;;;16.77;100.00
12969;BME280;6549;53.128;8.182;2023-08-07T10:28:39;100813.31;;;16.91;100.00
12969;BME280;6549;53.128;8.182;2023-08-07T10:31:42;100805.84;;;17.08;100.00
12969;BME280;6549;53.128;8.182;2023-08-07T10:34:49;100808.97;;;17.66;100.00
12969;BME280;6549;53.128;8.182;2023-08-07T10:37:52;100799.69;;;18.05;100.00
12969;BME280;6549;53.128;8.182;2023-08-07T10:41:06;100805.06;;;18.73;100.00
12969;BME280;6549;53.128;8.182;2023-08-07T10:44:44;100798.16;;;18.32;100.00
12969;BME280;6549;53.128;8.182;2023-08-07T10:51:04;100806.34;;;17.75;100.00
12969;BME280;6549;53.128;8.182;2023-08-07T10:54:05;100800.22;;;17.47;100.00
12969;BME280;6549;53.128;8.182;2023-08-07T10:57:10;100793.53;;;17.45;100.00
12969;BME280;6549;53.128;8.182;2023-08-07T11:00:12;100800.00;;;17.58;100.00
12969;BME280;6549;53.128;8.182;2023-08-07T11:03:25;100800.06;;;17.55;100.00
12969;BME280;6549;53.128;8.182;2023-08-07T11:06:28;100812.97;;;17.45;100.00
12969;BME280;6549;53.128;8.182;2023-08-07T11:09:34;100800.38;;;17.60;100.00
12969;BME280;6549;53.128;8.182;2023-08-07T11:12:51;100803.94;;;17.93;100.00
12969;BME280;6549;53.128;8.182;2023-08-07T11:15:51;100804.28;;;18.27;100.00
12969;BME280;6549;53.128;8.182;2023-08-07T11:18:52;100823.03;;;18.56;100.00
12969;BME280;6549;53.128;8.182;2023-08-07T11:21:53;100811.38;;;18.90;100.00
12969;BME280;6549;53.128;8.182;2023-08-07T11:24:54;100811.13;;;18.84;100.00
12969;BME280;6549;53.128;8.182;2023-08-07T11:27:54;100818.66;;;18.71;100.00
12969;BME280;6549;53.128;8.182;2023-08-07T11:30:56;100829.63;;;18.46;100.00
12969;BME280;6549;53.128;8.182;2023-08-07T11:33:57;100831.53;;;18.32;100.00
12969;BME280;6549;53.128;8.182;2023-08-07T11:36:58;100817.75;;;18.13;100.00
12969;BME280;6549;53.128;8.182;2023-08-07T11:40:03;100829.31;;;18.27;100.00
12969;BME280;6549;53.128;8.182;2023-08-07T11:43:03;100817.78;;;18.41;100.00
12969;BME280;6549;53.128;8.182;2023-08-07T11:46:05;100838.72;;;18.78;100.00
12969;BME280;6549;53.128;8.182;2023-08-07T11:49:07;100833.56;;;18.77;100.00
12969;BME280;6549;53.128;8.182;2023-08-07T11:52:07;100838.16;;;18.55;100.00
12969;BME280;6549;53.128;8.182;2023-08-07T11:55:08;100835.22;;;18.29;100.00
12969;BME280;6549;53.128;8.182;2023-08-07T11:58:09;100846.94;;;17.88;100.00
12969;BME280;6549;53.128;8.182;2023-08-07T12:01:14;100840.53;;;17.56;100.00
12969;BME280;6549;53.128;8.182;2023-08-07T12:04:17;100847.31;;;17.35;100.00
12969;BME280;6549;53.128;8.182;2023-08-07T12:07:17;100849.41;;;17.11;100.00
12969;BME280;6549;53.128;8.182;2023-08-07T12:10:19;100850.56;;;16.94;100.00
12969;BME280;6549;53.128;8.182;2023-08-07T12:13:23;100857.94;;;16.81;100.00
12969;BME280;6549;53.128;8.182;2023-08-07T12:16:25;100850.34;;;16.85;100.00
12969;BME280;6549;53.128;8.182;2023-08-07T12:19:35;100858.38;;;16.99;100.00
12969;BME280;6549;53.128;8.182;2023-08-07T12:22:36;100863.63;;;16.74;100.00
12969;BME280;6549;53.128;8.182;2023-08-07T12:25:37;100864.03;;;16.49;100.00
12969;BME280;6549;53.128;8.182;2023-08-07T12:28:37;100858.41;;;16.29;100.00
12969;BME280;6549;53.128;8.182;2023-08-07T12:31:38;100867.66;;;16.23;100.00
12969;BME280;6549;53.128;8.182;2023-08-07T12:34:38;100857.94;;;16.34;100.00
12969;BME280;6549;53.128;8.182;2023-08-07T12:37:38;100866.16;;;16.41;100.00
12969;BME280;6549;53.128;8.182;2023-08-07T12:40:39;100856.94;;;16.91;100.00
12969;BME280;6549;53.128;8.182;2023-08-07T12:43:40;100875.69;;;17.82;100.00
12969;BME280;6549;53.128;8.182;2023-08-07T12:46:40;100860.41;;;18.38;100.00
12969;BME280;6549;53.128;8.182;2023-08-07T12:49:40;100871.88;;;19.02;100.00
12969;BME280;6549;53.128;8.182;2023-08-07T12:52:41;100863.97;;;19.42;100.00
12969;BME280;6549;53.128;8.182;2023-08-07T12:55:41;100860.44;;;19.79;100.00
12969;BME280;6549;53.128;8.182;2023-08-07T12:58:42;100860.78;;;19.94;100.00
12969;BME280;6549;53.128;8.182;2023-08-07T13:01:42;100864.13;;;19.89;100.00
12969;BME280;6549;53.128;8.182;2023-08-07T13:04:43;100871.81;;;20.10;100.00
12969;BME280;6549;53.128;8.182;2023-08-07T13:07:44;100858.25;;;19.87;100.00
12969;BME280;6549;53.128;8.182;2023-08-07T13:10:45;100883.19;;;19.65;97.54
12969;BME280;6549;53.128;8.182;2023-08-07T13:13:45;100898.91;;;19.59;97.57
12969;BME280;6549;53.128;8.182;2023-08-07T13:16:45;100888.84;;;19.07;90.68
12969;BME280;6549;53.128;8.182;2023-08-07T13:19:46;100911.03;;;18.66;97.80
12969;BME280;6549;53.128;8.182;2023-08-07T13:22:46;100910.59;;;18.19;100.00
12969;BME280;6549;53.128;8.182;2023-08-07T13:25:46;100916.03;;;18.06;100.00
12969;BME280;6549;53.128;8.182;2023-08-07T13:28:47;100895.97;;;18.15;100.00
12969;BME280;6549;53.128;8.182;2023-08-07T13:31:47;100907.03;;;18.18;100.00
12969;BME280;6549;53.128;8.182;2023-08-07T13:34:48;100915.00;;;18.32;100.00
12969;BME280;6549;53.128;8.182;2023-08-07T13:37:48;100901.81;;;18.36;100.00
12969;BME280;6549;53.128;8.182;2023-08-07T13:40:49;100907.03;;;18.34;100.00
12969;BME280;6549;53.128;8.182;2023-08-07T13:43:51;100909.53;;;18.29;100.00
12969;BME280;6549;53.128;8.182;2023-08-07T13:46:51;100906.84;;;18.09;100.00
12969;BME280;6549;53.128;8.182;2023-08-07T13:49:52;100913.53;;;17.76;100.00
12969;BME280;6549;53.128;8.182;2023-08-07T13:52:53;100920.91;;;17.46;100.00
12969;BME280;6549;53.128;8.182;2023-08-07T13:55:57;100920.75;;;17.14;100.00
12969;BME280;6549;53.128;8.182;2023-08-07T13:58:57;100920.47;;;17.28;100.00
12969;BME280;6549;53.128;8.182;2023-08-07T14:01:57;100929.50;;;17.32;100.00
12969;BME280;6549;53.128;8.182;2023-08-07T14:04:59;100928.38;;;17.10;100.00
12969;BME280;6549;53.128;8.182;2023-08-07T14:07:59;100945.75;;;16.91;100.00
12969;BME280;6549;53.128;8.182;2023-08-07T14:11:00;100932.63;;;16.72;100.00
12969;BME280;6549;53.128;8.182;2023-08-07T14:14:00;100930.44;;;16.83;100.00
12969;BME280;6549;53.128;8.182;2023-08-07T14:17:00;100934.13;;;17.19;100.00
12969;BME280;6549;53.128;8.182;2023-08-07T14:20:02;100923.03;;;17.59;100.00
12969;BME280;6549;53.128;8.182;2023-08-07T14:23:04;100924.00;;;17.88;100.00
12969;BME280;6549;53.128;8.182;2023-08-07T14:26:05;100923.97;;;18.24;100.00
12969;BME280;6549;53.128;8.182;2023-08-07T14:29:05;100932.22;;;18.44;100.00
12969;BME280;6549;53.128;8.182;2023-08-07T14:32:05;100931.19;;;18.70;100.00
12969;BME280;6549;53.128;8.182;2023-08-07T14:35:06;100933.09;;;18.73;100.00
12969;BME280;6549;53.128;8.182;2023-08-07T14:38:06;100936.97;;;18.63;100.00
12969;BME280;6549;53.128;8.182;2023-08-07T14:41:07;100945.63;;;18.49;100.00
12969;BME280;6549;53.128;8.182;2023-08-07T14:44:07;100942.22;;;18.25;100.00
12969;BME280;6549;53.128;8.182;2023-08-07T14:47:07;100956.25;;;18.02;100.00
12969;BME280;6549;53.128;8.182;2023-08-07T14:50:08;100956.00;;;17.96;100.00
12969;BME280;6549;53.128;8.182;2023-08-07T14:53:08;100965.56;;;18.11;100.00
12969;BME280;6549;53.128;8.182;2023-08-07T14:56:08;100955.50;;;18.01;100.00
12969;BME280;6549;53.128;8.182;2023-08-07T14:59:09;100949.88;;;17.85;100.00
12969;BME280;6549;53.128;8.182;2023-08-07T15:02:09;100959.22;;;17.75;100.00
12969;BME280;6549;53.128;8.182;2023-08-07T15:05:09;100968.78;;;17.74;100.00
12969;BME280;6549;53.128;8.182;2023-08-07T15:08:10;100963.56;;;17.95;100.00
12969;BME280;6549;53.128;8.182;2023-08-07T15:11:10;100950.28;;;18.19;100.00
12969;BME280;6549;53.128;8.182;2023-08-07T15:14:10;100965.84;;;18.17;100.00
12969;BME280;6549;53.128;8.182;2023-08-07T15:17:11;100966.78;;;18.10;100.00
12969;BME280;6549;53.128;8.182;2023-08-07T15:20:11;100971.84;;;18.15;100.00
12969;BME280;6549;53.128;8.182;2023-08-07T15:23:11;100966.88;;;18.07;100.00
12969;BME280;6549;53.128;8.182;2023-08-07T15:26:12;100968.03;;;17.89;100.00
12969;BME280;6549;53.128;8.182;2023-08-07T15:29:12;100972.50;;;17.67;100.00
12969;BME280;6549;53.128;8.182;2023-08-07T15:32:12;100959.75;;;17.70;100.00
12969;BME280;6549;53.128;8.182;2023-08-07T15:35:18;100966.72;;;17.78;100.00
12969;BME280;6549;53.128;8.182;2023-08-07T15:38:19;100968.47;;;17.88;100.00
12969;BME280;6549;53.128;8.182;2023-08-07T15:41:20;100972.59;;;18.00;100.00
12969;BME280;6549;53.128;8.182;2023-08-07T15:44:20;100968.22;;;18.34;100.00
12969;BME280;6549;53.128;8.182;2023-08-07T15:47:20;100960.91;;;18.24;100.00
12969;BME280;6549;53.128;8.182;2023-08-07T15:50:21;100974.69;;;18.12;100.00
12969;BME280;6549;53.128;8.182;2023-08-07T15:53:22;100978.22;;;18.32;100.00
12969;BME280;6549;53.128;8.182;2023-08-07T15:56:23;100973.28;;;18.39;100.00
12969;BME280;6549;53.128;8.182;2023-08-07T15:59:23;100975.75;;;18.54;100.00
12969;BME280;6549;53.128;8.182;2023-08-07T16:02:26;100983.56;;;18.75;100.00